createdAt,value
2018-04-08T00:01:39.400Z,51.78
2018-04-08T00:04:07.032Z,51.83
2018-04-08T00:06:34.710Z,51.95
2018-04-08T00:09:02.347Z,52.11
2018-04-08T00:11:29.964Z,52.24
2018-04-08T00:13:57.585Z,52.33
2018-04-08T00:16:25.268Z,52.42
2018-04-08T00:18:52.930Z,52.50
2018-04-08T00:21:20.579Z,52.81
2018-04-08T00:23:48.198Z,52.95
2018-04-08T00:26:15.840Z,53.22
2018-04-08T00:28:43.447Z,53.45
2018-04-08T00:31:11.131Z,53.70
2018-04-08T00:33:38.749Z,53.87
2018-04-08T00:36:06.384Z,54.03
2018-04-08T00:38:34.009Z,54.12
2018-04-08T00:41:01.652Z,54.23
2018-04-08T00:43:29.344Z,54.56
2018-04-08T00:45:56.980Z,54.66
2018-04-08T00:48:24.671Z,54.85
2018-04-08T00:50:52.311Z,55.16
2018-04-08T00:53:19.930Z,55.18
2018-04-08T00:55:47.656Z,55.26
2018-04-08T00:58:15.277Z,55.37
2018-04-08T01:00:42.920Z,55.50
2018-04-08T01:03:10.543Z,55.54
2018-04-08T01:05:39.013Z,55.73
2018-04-08T01:08:06.624Z,56.05
2018-04-08T01:10:34.361Z,56.12
2018-04-08T01:13:02.003Z,56.45
2018-04-08T01:15:29.644Z,56.64
2018-04-08T01:17:57.261Z,56.80
2018-04-08T01:20:24.896Z,56.89
2018-04-08T01:22:52.512Z,56.92
2018-04-08T01:25:20.227Z,56.98
2018-04-08T01:27:47.864Z,57.04
2018-04-08T01:30:15.488Z,57.05
2018-04-08T01:32:43.119Z,57.10
2018-04-08T01:35:10.732Z,57.29
2018-04-08T01:37:38.440Z,57.32
2018-04-08T01:40:10.861Z,57.58
2018-04-08T01:42:38.500Z,57.62
2018-04-08T01:45:06.149Z,57.69
2018-04-08T01:47:33.789Z,57.91
2018-04-08T01:50:01.413Z,58.05
2018-04-08T01:52:29.056Z,58.10
2018-04-08T01:54:56.672Z,58.20
2018-04-08T01:57:24.333Z,58.28
2018-04-08T01:59:51.948Z,58.38
2018-04-08T02:02:19.676Z,58.43
2018-04-08T02:04:47.345Z,58.66
2018-04-08T02:07:15.009Z,58.80
2018-04-08T02:09:42.629Z,58.94
2018-04-08T02:12:10.328Z,59.09
2018-04-08T02:14:37.993Z,59.33
2018-04-08T02:17:05.657Z,59.46
2018-04-08T02:19:33.325Z,59.51
2018-04-08T02:22:01.094Z,59.62
2018-04-08T02:24:28.716Z,59.64
2018-04-08T02:26:56.414Z,59.73
2018-04-08T02:29:24.043Z,59.81
2018-04-08T02:31:51.739Z,60.14
2018-04-08T02:34:19.398Z,60.26
2018-04-08T02:36:47.163Z,60.32
2018-04-08T02:39:14.780Z,60.54
2018-04-08T02:41:42.489Z,60.65
2018-04-08T02:44:10.157Z,60.82
2018-04-08T02:46:37.810Z,60.89
2018-04-08T02:49:05.459Z,60.97
2018-04-08T02:51:33.141Z,61.17
2018-04-08T02:54:00.783Z,61.20
2018-04-08T02:56:28.413Z,61.19
2018-04-08T02:58:56.129Z,61.32
2018-04-08T03:01:23.784Z,61.34
2018-04-08T03:03:51.462Z,61.45
2018-04-08T03:06:19.149Z,61.50
2018-04-08T03:08:46.788Z,61.59
2018-04-08T03:11:14.409Z,61.61
2018-04-08T03:13:42.109Z,61.78
2018-04-08T03:16:09.738Z,61.95
2018-04-08T03:18:37.424Z,62.06
2018-04-08T03:21:05.093Z,62.21
2018-04-08T03:23:32.739Z,62.43
2018-04-08T03:26:00.364Z,62.45
2018-04-08T03:28:28.009Z,62.52
2018-04-08T03:30:55.629Z,62.43
2018-04-08T03:33:23.268Z,62.53
2018-04-08T03:35:50.888Z,62.69
2018-04-08T03:38:18.530Z,62.77
2018-04-08T03:40:46.144Z,62.85
2018-04-08T03:43:13.784Z,62.88
2018-04-08T03:45:41.409Z,62.92
2018-04-08T03:48:09.052Z,63.07
2018-04-08T03:50:36.664Z,62.98
2018-04-08T03:53:04.282Z,63.11
2018-04-08T03:55:31.926Z,63.11
2018-04-08T03:57:59.616Z,63.23
2018-04-08T04:00:27.260Z,63.34
2018-04-08T04:02:54.889Z,63.20
2018-04-08T04:05:22.534Z,63.23
2018-04-08T04:07:50.156Z,63.30
2018-04-08T04:10:17.829Z,63.22
2018-04-08T04:12:45.449Z,63.16
2018-04-08T04:15:13.088Z,63.14
2018-04-08T04:17:40.821Z,63.04
2018-04-08T04:20:20.464Z,62.93
2018-04-08T04:22:59.753Z,62.80
2018-04-08T04:28:30.853Z,62.60
2018-04-08T04:30:58.513Z,62.59
2018-04-08T04:33:26.185Z,62.53
2018-04-08T04:35:53.853Z,62.49
2018-04-08T04:38:21.521Z,62.38
2018-04-08T04:40:49.180Z,62.33
2018-04-08T04:43:16.796Z,62.20
2018-04-08T04:45:44.507Z,62.09
2018-04-08T04:48:12.128Z,61.97
2018-04-08T04:50:39.772Z,61.89
2018-04-08T04:53:07.394Z,61.70
2018-04-08T04:55:35.034Z,61.59
2018-04-08T04:58:02.648Z,61.60
2018-04-08T05:00:30.290Z,61.49
2018-04-08T05:02:57.917Z,61.43
2018-04-08T05:05:25.588Z,61.38
2018-04-08T05:07:53.643Z,61.27
2018-04-08T05:10:21.332Z,61.20
2018-04-08T05:12:49.001Z,61.21
2018-04-08T05:15:16.662Z,61.18
2018-04-08T05:17:44.289Z,61.05
2018-04-08T05:20:11.918Z,61.07
2018-04-08T05:22:39.560Z,60.97
2018-04-08T05:25:07.176Z,60.86
2018-04-08T05:27:34.873Z,60.67
2018-04-08T05:30:02.533Z,60.56
2018-04-08T05:32:30.173Z,60.39
2018-04-08T05:34:57.975Z,60.21
2018-04-08T05:37:25.630Z,60.09
2018-04-08T05:39:53.260Z,59.88
2018-04-08T05:42:20.908Z,59.72
2018-04-08T05:44:48.533Z,59.45
2018-04-08T05:47:16.181Z,59.33
2018-04-08T05:49:43.806Z,59.17
2018-04-08T05:52:11.448Z,58.99
2018-04-08T05:54:39.065Z,58.77
2018-04-08T05:57:06.724Z,58.63
2018-04-08T05:59:34.380Z,58.49
2018-04-08T06:02:02.032Z,58.28
2018-04-08T06:04:29.658Z,58.16
2018-04-08T06:06:57.297Z,57.99
2018-04-08T06:09:24.937Z,57.81
2018-04-08T06:11:52.653Z,57.69
2018-04-08T06:14:20.272Z,57.50
2018-04-08T06:16:47.912Z,57.35
2018-04-08T06:19:15.533Z,57.11
2018-04-08T06:21:43.245Z,56.99
2018-04-08T06:24:10.865Z,56.99
2018-04-08T06:26:38.525Z,56.97
2018-04-08T06:29:06.228Z,56.70
2018-04-08T06:31:33.849Z,56.46
2018-04-08T06:34:01.489Z,56.29
2018-04-08T06:36:29.108Z,56.22
2018-04-08T06:38:56.753Z,56.14
2018-04-08T06:41:24.373Z,56.03
2018-04-08T06:43:52.013Z,55.90
2018-04-08T06:46:19.633Z,55.77
2018-04-08T06:48:47.332Z,55.57
2018-04-08T06:51:14.958Z,55.29
2018-04-08T06:53:42.592Z,55.07
2018-04-08T06:56:10.217Z,54.98
2018-04-08T06:58:37.876Z,54.74
2018-04-08T07:01:05.532Z,54.51
2018-04-08T07:03:33.190Z,54.29
2018-04-08T07:06:00.820Z,54.24
2018-04-08T07:08:28.461Z,54.09
2018-04-08T07:10:56.077Z,53.91
2018-04-08T07:13:23.752Z,53.88
2018-04-08T07:15:51.377Z,53.59
2018-04-08T07:18:19.036Z,53.35
2018-04-08T07:20:46.661Z,53.36
2018-04-08T07:23:14.397Z,53.03
2018-04-08T07:25:42.033Z,52.91
2018-04-08T07:28:09.677Z,52.90
2018-04-08T07:30:37.386Z,52.62
2018-04-08T07:33:05.020Z,52.41
2018-04-08T07:35:32.718Z,52.42
2018-04-08T07:38:00.398Z,51.93
2018-04-08T07:40:28.001Z,51.83
2018-04-08T07:42:55.626Z,51.56
2018-04-08T07:45:23.365Z,51.43
2018-04-08T07:47:51.081Z,51.17
2018-04-08T07:50:18.793Z,50.89
2018-04-08T07:52:46.407Z,50.65
2018-04-08T07:55:14.123Z,50.61
2018-04-08T07:57:41.788Z,50.46
2018-04-08T08:00:09.541Z,50.30
2018-04-08T08:02:37.158Z,50.23
2018-04-08T08:05:04.805Z,50.12
2018-04-08T08:07:32.426Z,49.98
2018-04-08T08:10:00.186Z,49.99
2018-04-08T08:12:27.809Z,49.38
2018-04-08T08:14:55.517Z,49.23
2018-04-08T08:17:23.140Z,48.92
2018-04-08T08:19:50.849Z,48.67
2018-04-08T08:22:18.471Z,48.50
2018-04-08T08:24:46.121Z,48.10
2018-04-08T08:27:13.741Z,47.86
2018-04-08T08:29:41.385Z,47.78
2018-04-08T08:32:09.000Z,47.32
2018-04-08T08:34:36.645Z,47.21
2018-04-08T08:37:04.276Z,47.08
2018-04-08T08:39:31.908Z,46.76
2018-04-08T08:41:59.600Z,46.55
2018-04-08T08:44:27.276Z,46.62
2018-04-08T08:46:54.892Z,46.64
2018-04-08T08:49:22.536Z,46.25
2018-04-08T08:51:50.158Z,46.38
2018-04-08T08:54:17.803Z,46.13
2018-04-08T08:56:45.478Z,45.78
2018-04-08T08:59:13.118Z,45.68
2018-04-08T09:01:40.748Z,45.52
2018-04-08T09:04:08.397Z,45.48
2018-04-08T09:06:36.072Z,45.30
2018-04-08T09:09:03.725Z,45.01
2018-04-08T09:11:31.345Z,44.97
2018-04-08T09:13:58.957Z,44.62
2018-04-08T09:16:26.597Z,44.11
2018-04-08T09:19:04.120Z,43.88
2018-04-08T09:21:31.766Z,43.60
2018-04-08T09:24:04.777Z,43.47
2018-04-08T09:26:32.413Z,43.44
2018-04-08T09:29:00.031Z,43.36
2018-04-08T09:31:27.705Z,42.64
2018-04-08T09:33:55.322Z,42.48
2018-04-08T09:36:23.066Z,42.48
2018-04-08T09:38:50.629Z,42.26
2018-04-08T09:41:18.353Z,41.89
2018-04-08T09:43:45.990Z,41.67
2018-04-08T09:46:13.676Z,41.43
2018-04-08T09:48:41.294Z,41.58
2018-04-08T09:51:08.938Z,41.68
2018-04-08T09:53:36.577Z,41.22
2018-04-08T09:56:04.209Z,40.80
2018-04-08T09:58:32.225Z,41.09
2018-04-08T10:04:07.390Z,39.90
2018-04-08T10:06:35.120Z,39.16
2018-04-08T10:09:02.741Z,39.09
2018-04-08T10:11:30.376Z,38.44
2018-04-08T10:13:58.010Z,38.50
2018-04-08T10:16:25.649Z,38.88
2018-04-08T10:18:53.262Z,38.23
2018-04-08T10:21:20.896Z,38.32
2018-04-08T10:23:48.510Z,38.39
2018-04-08T10:26:16.227Z,38.67
2018-04-08T10:28:43.886Z,38.57
2018-04-08T10:31:11.545Z,38.76
2018-04-08T10:33:39.210Z,38.32
2018-04-08T10:36:06.850Z,38.61
2018-04-08T10:38:34.469Z,38.38
2018-04-08T10:41:02.110Z,38.36
2018-04-08T10:43:29.724Z,38.16
2018-04-08T10:45:57.357Z,38.11
2018-04-08T10:48:24.982Z,38.29
2018-04-08T10:50:52.617Z,37.90
2018-04-08T10:53:20.233Z,37.47
2018-04-08T10:55:47.864Z,36.79
2018-04-08T10:58:15.550Z,36.92
2018-04-08T11:00:43.253Z,37.27
2018-04-08T11:03:10.872Z,37.12
2018-04-08T11:05:38.505Z,37.32
2018-04-08T11:08:06.122Z,37.46
2018-04-08T11:10:33.762Z,36.87
2018-04-08T11:13:01.377Z,37.23
2018-04-08T11:15:29.012Z,37.59
2018-04-08T11:17:56.630Z,37.50
2018-04-08T11:20:24.277Z,37.27
2018-04-08T11:22:51.900Z,37.08
2018-04-08T11:25:19.533Z,36.84
2018-04-08T11:27:47.173Z,37.17
2018-04-08T11:30:14.782Z,37.29
2018-04-08T11:32:42.417Z,37.18
2018-04-08T11:35:10.054Z,36.90
2018-04-08T11:37:37.702Z,37.13
2018-04-08T11:40:05.385Z,37.40
2018-04-08T11:42:33.041Z,37.04
2018-04-08T11:45:00.709Z,36.76
2018-04-08T11:47:28.373Z,36.46
2018-04-08T11:49:55.984Z,36.47
2018-04-08T11:52:23.621Z,36.68
2018-04-08T11:54:51.257Z,36.54
2018-04-08T11:57:18.902Z,36.24
2018-04-08T11:59:46.581Z,36.39
2018-04-08T12:02:14.221Z,36.46
2018-04-08T12:04:41.836Z,36.56
2018-04-08T12:07:09.469Z,36.35
2018-04-08T12:09:37.081Z,35.80
2018-04-08T12:12:04.719Z,36.29
2018-04-08T12:14:32.356Z,36.09
2018-04-08T12:17:00.023Z,35.81
2018-04-08T12:19:27.636Z,35.48
2018-04-08T12:21:55.269Z,35.21
2018-04-08T12:24:22.880Z,35.12
2018-04-08T12:26:52.907Z,34.80
2018-04-08T12:29:20.516Z,34.01
2018-04-08T12:31:48.145Z,34.12
2018-04-08T12:34:15.775Z,34.39
2018-04-08T12:36:43.454Z,34.53
2018-04-08T12:39:11.117Z,33.74
2018-04-08T12:41:38.750Z,33.48
2018-04-08T12:44:06.356Z,33.47
2018-04-08T12:46:34.012Z,33.50
2018-04-08T12:49:01.649Z,33.37
2018-04-08T12:51:29.262Z,32.94
2018-04-08T12:53:56.916Z,32.90
2018-04-08T12:56:24.540Z,32.53
2018-04-08T12:58:52.224Z,32.32
2018-04-08T13:01:19.980Z,32.49
2018-04-08T13:03:47.654Z,32.78
2018-04-08T13:06:15.270Z,32.70
2018-04-08T13:08:42.913Z,32.77
2018-04-08T13:11:10.527Z,32.88
2018-04-08T13:13:38.160Z,32.37
2018-04-08T13:16:05.773Z,32.60
2018-04-08T13:18:33.404Z,32.80
2018-04-08T13:21:01.436Z,32.58
2018-04-08T13:23:29.076Z,32.33
2018-04-08T13:25:56.721Z,32.18
2018-04-08T13:28:24.384Z,31.92
2018-04-08T13:30:52.044Z,31.75
2018-04-08T13:33:19.676Z,32.17
2018-04-08T13:35:47.369Z,32.61
2018-04-08T13:38:15.038Z,32.64
2018-04-08T13:40:42.697Z,32.31
2018-04-08T13:43:10.336Z,32.20
2018-04-08T13:45:37.952Z,32.12
2018-04-08T13:48:05.593Z,32.14
2018-04-08T13:50:33.205Z,32.01
2018-04-08T13:53:00.844Z,31.93
2018-04-08T13:55:28.572Z,32.37
2018-04-08T13:57:56.234Z,32.48
2018-04-08T14:00:23.897Z,32.38
2018-04-08T14:02:51.557Z,32.51
2018-04-08T14:05:19.221Z,32.70
2018-04-08T14:07:46.886Z,33.22
2018-04-08T14:10:14.497Z,33.22
2018-04-08T14:12:42.111Z,33.05
2018-04-08T14:15:09.769Z,32.81
2018-04-08T14:17:37.433Z,32.77
2018-04-08T14:20:05.085Z,32.35
2018-04-08T14:22:32.761Z,31.91
2018-04-08T14:25:00.425Z,31.99
2018-04-08T14:27:28.032Z,32.21
2018-04-08T14:29:55.746Z,32.13
2018-04-08T14:32:23.367Z,32.35
2018-04-08T14:34:51.004Z,32.45
2018-04-08T14:37:18.618Z,32.37
2018-04-08T14:39:46.293Z,32.03
2018-04-08T14:42:13.914Z,31.56
2018-04-08T14:44:41.613Z,31.66
2018-04-08T14:47:09.232Z,31.84
2018-04-08T14:49:36.945Z,32.05
2018-04-08T14:52:04.607Z,31.88
2018-04-08T14:54:32.246Z,31.62
2018-04-08T14:56:59.928Z,31.69
2018-04-08T14:59:27.561Z,31.84
2018-04-08T15:01:55.216Z,31.96
2018-04-08T15:04:22.853Z,32.02
2018-04-08T15:06:50.478Z,31.85
2018-04-08T15:09:18.141Z,31.78
2018-04-08T15:11:45.792Z,31.82
2018-04-08T15:14:13.455Z,31.73
2018-04-08T15:16:41.069Z,31.56
2018-04-08T15:19:08.709Z,31.48
2018-04-08T15:21:36.348Z,31.47
2018-04-08T15:24:03.995Z,31.35
2018-04-08T15:26:31.616Z,31.54
2018-04-08T15:28:59.257Z,31.60
2018-04-08T15:31:26.893Z,31.60
2018-04-08T15:33:54.501Z,31.69
2018-04-08T15:36:22.145Z,31.61
2018-04-08T15:38:49.761Z,31.51
2018-04-08T15:41:17.393Z,31.28
2018-04-08T15:43:45.013Z,31.10
2018-04-08T15:46:12.657Z,31.32
2018-04-08T15:48:40.300Z,31.51
2018-04-08T15:51:08.001Z,31.77
2018-04-08T15:53:35.661Z,31.69
2018-04-08T15:56:03.320Z,31.54
2018-04-08T15:58:30.983Z,31.80
2018-04-08T16:00:58.644Z,32.01
2018-04-08T16:03:26.308Z,32.08
2018-04-08T16:05:53.952Z,32.20
2018-04-08T16:08:21.645Z,32.11
2018-04-08T16:10:49.348Z,32.12
2018-04-08T16:13:16.960Z,32.27
2018-04-08T16:15:44.625Z,32.48
2018-04-08T16:18:12.237Z,32.61
2018-04-08T16:20:39.880Z,32.73
2018-04-08T16:23:07.497Z,32.78
2018-04-08T16:25:35.184Z,32.83
2018-04-08T16:28:02.832Z,32.96
2018-04-08T16:30:30.461Z,32.98
2018-04-08T16:32:58.081Z,33.20
2018-04-08T16:35:25.711Z,33.16
2018-04-08T16:37:53.385Z,33.22
2018-04-08T16:40:21.019Z,33.27
2018-04-08T16:42:48.628Z,33.33
2018-04-08T16:45:16.370Z,33.42
2018-04-08T16:47:44.430Z,33.49
2018-04-08T16:50:12.104Z,33.51
2018-04-08T16:52:39.765Z,33.44
2018-04-08T16:55:07.425Z,33.32
2018-04-08T16:57:35.084Z,33.06
2018-04-08T17:00:02.697Z,32.99
2018-04-08T17:02:30.334Z,32.98
2018-04-08T17:04:57.944Z,32.81
2018-04-08T17:07:25.585Z,32.70
2018-04-08T17:09:53.191Z,32.70
2018-04-08T17:12:20.861Z,32.66
2018-04-08T17:14:48.524Z,32.80
2018-04-08T17:17:16.213Z,32.74
2018-04-08T17:19:43.830Z,32.90
2018-04-08T17:22:11.509Z,33.11
2018-04-08T17:24:39.120Z,33.51
2018-04-08T17:27:06.758Z,33.67
2018-04-08T17:29:34.396Z,33.99
2018-04-08T17:32:02.032Z,34.31
2018-04-08T17:34:29.644Z,34.57
2018-04-08T17:36:57.284Z,34.90
2018-04-08T17:39:24.899Z,35.29
2018-04-08T17:41:52.540Z,35.56
2018-04-08T17:44:20.159Z,35.75
2018-04-08T17:46:47.793Z,36.02
2018-04-08T17:49:15.405Z,36.35
2018-04-08T17:51:43.042Z,36.70
2018-04-08T17:54:10.652Z,36.98
2018-04-08T17:56:38.293Z,37.24
2018-04-08T17:59:05.908Z,37.45
2018-04-08T18:01:33.600Z,37.84
2018-04-08T18:04:01.272Z,38.32
2018-04-08T18:06:28.893Z,38.78
2018-04-08T18:08:56.527Z,39.23
2018-04-08T18:11:24.252Z,39.48
2018-04-08T18:13:51.893Z,39.82
2018-04-08T18:16:19.543Z,40.18
2018-04-08T18:18:47.194Z,40.55
2018-04-08T18:21:14.804Z,40.78
2018-04-08T18:23:42.469Z,41.02
2018-04-08T18:26:10.084Z,41.29
2018-04-08T18:28:37.793Z,41.84
2018-04-08T18:31:05.413Z,42.25
2018-04-08T18:33:33.142Z,42.45
2018-04-08T18:36:00.755Z,42.64
2018-04-08T18:38:28.440Z,42.78
2018-04-08T18:40:56.056Z,43.04
2018-04-08T18:43:23.764Z,43.26
2018-04-08T18:45:51.392Z,43.60
2018-04-08T18:48:19.089Z,43.79
2018-04-08T18:50:46.759Z,44.05
2018-04-08T18:53:14.406Z,44.34
2018-04-08T18:55:42.019Z,44.59
2018-04-08T18:58:09.657Z,45.04
2018-04-08T19:00:37.279Z,45.34
2018-04-08T19:03:04.921Z,45.54
2018-04-08T19:05:32.558Z,45.82
2018-04-08T19:08:00.201Z,46.13
2018-04-08T19:10:27.817Z,46.47
2018-04-08T19:12:55.441Z,46.70
2018-04-08T19:15:23.068Z,46.96
2018-04-08T19:17:56.444Z,47.19
2018-04-08T19:20:24.084Z,47.36
2018-04-08T19:22:51.698Z,47.47
2018-04-08T19:25:19.341Z,47.75
2018-04-08T19:27:46.961Z,47.89
2018-04-08T19:30:20.021Z,48.18
2018-04-08T19:32:47.665Z,48.43
2018-04-08T19:35:15.307Z,48.54
2018-04-08T19:37:42.925Z,48.81
2018-04-08T19:40:10.567Z,49.06
2018-04-08T19:42:38.184Z,49.36
2018-04-08T19:45:05.826Z,49.70
2018-04-08T19:47:33.556Z,49.98
2018-04-08T19:50:01.306Z,49.99
2018-04-08T19:52:28.933Z,50.32
2018-04-08T19:54:56.633Z,50.61
2018-04-08T19:57:24.299Z,50.92
2018-04-08T19:59:51.934Z,51.13
2018-04-08T20:02:19.568Z,51.46
2018-04-08T20:04:47.231Z,51.68
2018-04-08T20:07:15.252Z,51.90
2018-04-08T20:09:42.909Z,52.27
2018-04-08T20:12:10.529Z,52.54
2018-04-08T20:14:38.165Z,52.77
2018-04-08T20:17:05.784Z,52.83
2018-04-08T20:19:33.425Z,53.10
2018-04-08T20:22:01.044Z,53.39
2018-04-08T20:24:28.691Z,53.50
2018-04-08T20:26:56.304Z,53.69
2018-04-08T20:29:23.952Z,53.89
2018-04-08T20:31:51.577Z,54.31
2018-04-08T20:34:19.230Z,54.69
2018-04-08T20:36:46.888Z,54.86
2018-04-08T20:39:14.520Z,54.85
2018-04-08T20:41:42.216Z,55.17
2018-04-08T20:44:09.876Z,55.39
2018-04-08T20:46:37.541Z,55.58
2018-04-08T20:49:05.256Z,55.67
2018-04-08T20:51:32.858Z,55.98
2018-04-08T20:54:00.524Z,56.39
2018-04-08T20:56:28.161Z,56.81
2018-04-08T20:58:55.853Z,57.12
2018-04-08T21:01:23.488Z,57.38
2018-04-08T21:03:51.108Z,57.51
2018-04-08T21:06:18.844Z,57.69
2018-04-08T21:08:46.501Z,57.73
2018-04-08T21:11:14.166Z,57.78
2018-04-08T21:13:41.781Z,57.88
2018-04-08T21:16:09.427Z,57.99
2018-04-08T21:18:37.155Z,58.10
2018-04-08T21:21:04.816Z,58.10
2018-04-08T21:23:32.432Z,58.46
2018-04-08T21:26:00.069Z,58.86
2018-04-08T21:28:27.692Z,59.03
2018-04-08T21:30:55.336Z,59.15
2018-04-08T21:33:23.024Z,59.32
2018-04-08T21:35:50.661Z,59.63
2018-04-08T21:38:18.356Z,59.78
2018-04-08T21:40:46.016Z,60.06
2018-04-08T21:43:13.629Z,60.30
2018-04-08T21:45:41.345Z,60.56
2018-04-08T21:48:08.984Z,60.66
2018-04-08T21:50:36.609Z,60.90
2018-04-08T21:53:04.247Z,61.01
2018-04-08T21:55:31.865Z,61.15
2018-04-08T21:57:59.548Z,61.25
2018-04-08T22:00:27.165Z,61.33
2018-04-08T22:02:54.804Z,61.36
2018-04-08T22:05:22.420Z,61.59
2018-04-08T22:07:50.097Z,61.90
2018-04-08T22:10:17.719Z,61.87
2018-04-08T22:12:45.420Z,61.95
2018-04-08T22:15:13.037Z,62.10
2018-04-08T22:17:40.677Z,62.19
2018-04-08T22:20:08.316Z,62.40
2018-04-08T22:22:35.952Z,62.64
2018-04-08T22:25:03.564Z,62.78
2018-04-08T22:27:31.200Z,63.21
2018-04-08T22:29:58.816Z,63.60
2018-04-08T22:32:26.517Z,63.82
2018-04-08T22:34:54.127Z,63.79
2018-04-08T22:37:21.772Z,63.75
2018-04-08T22:39:49.396Z,63.79
2018-04-08T22:42:17.036Z,63.94
2018-04-08T22:44:44.653Z,64.11
2018-04-08T22:47:12.297Z,64.09
2018-04-08T22:49:39.913Z,64.14
2018-04-08T22:52:07.568Z,64.31
2018-04-08T22:54:35.180Z,64.32
2018-04-08T22:57:02.836Z,64.41
2018-04-08T22:59:30.473Z,64.68
2018-04-08T23:01:58.092Z,64.92
2018-04-08T23:04:25.728Z,65.02
2018-04-08T23:06:53.387Z,65.22
2018-04-08T23:09:21.028Z,65.25
2018-04-08T23:11:48.674Z,65.22
2018-04-08T23:14:16.309Z,65.17
2018-04-08T23:16:43.921Z,65.11
2018-04-08T23:19:11.598Z,65.20
2018-04-08T23:21:39.229Z,65.25
2018-04-08T23:24:06.920Z,65.42
2018-04-08T23:26:34.593Z,65.51
2018-04-08T23:29:02.248Z,65.74
2018-04-08T23:31:29.868Z,65.66
2018-04-08T23:33:57.572Z,65.99
2018-04-08T23:36:25.193Z,66.11
2018-04-08T23:38:52.901Z,66.35
2018-04-08T23:41:20.516Z,66.44
2018-04-08T23:43:48.155Z,66.50
2018-04-08T23:46:15.886Z,66.97
2018-04-08T23:48:43.525Z,67.12
2018-04-08T23:51:11.141Z,67.22
2018-04-08T23:53:38.781Z,67.33
2018-04-08T23:56:06.396Z,67.58
2018-04-08T23:58:34.052Z,67.68
